sensor_id;sensor_type;location;lat;lon;timestamp;P1;durP1;ratioP1;P2;durP2;ratioP2
70576;SDS011;58138;43.138;24.702;2024-03-02T00:02:11;74.63;;;47.17;;
70576;SDS011;58138;43.138;24.702;2024-03-02T00:04:37;70.20;;;46.40;;
70576;SDS011;58138;43.138;24.702;2024-03-02T00:07:03;69.47;;;45.63;;
70576;SDS011;58138;43.138;24.702;2024-03-02T00:09:29;68.88;;;43.92;;
70576;SDS011;58138;43.138;24.702;2024-03-02T00:11:54;61.20;;;41.90;;
70576;SDS011;58138;43.138;24.702;2024-03-02T00:14:20;59.85;;;38.83;;
70576;SDS011;58138;43.138;24.702;2024-03-02T00:16:46;55.75;;;37.20;;
70576;SDS011;58138;43.138;24.702;2024-03-02T00:19:11;52.05;;;36.95;;
70576;SDS011;58138;43.138;24.702;2024-03-02T00:21:37;51.92;;;35.72;;
70576;SDS011;58138;43.138;24.702;2024-03-02T00:24:24;49.92;;;35.05;;
70576;SDS011;58138;43.138;24.702;2024-03-02T00:26:59;48.58;;;34.30;;
70576;SDS011;58138;43.138;24.702;2024-03-02T00:29:24;49.00;;;34.10;;
70576;SDS011;58138;43.138;24.702;2024-03-02T00:31:50;51.35;;;35.42;;
70576;SDS011;58138;43.138;24.702;2024-03-02T00:34:17;47.47;;;32.97;;
70576;SDS011;58138;43.138;24.702;2024-03-02T00:36:42;46.95;;;32.42;;
70576;SDS011;58138;43.138;24.702;2024-03-02T00:39:08;47.17;;;32.35;;
70576;SDS011;58138;43.138;24.702;2024-03-02T00:41:34;53.72;;;33.83;;
70576;SDS011;58138;43.138;24.702;2024-03-02T00:44:04;47.60;;;31.63;;
70576;SDS011;58138;43.138;24.702;2024-03-02T00:46:34;45.42;;;32.25;;
70576;SDS011;58138;43.138;24.702;2024-03-02T00:49:02;47.55;;;32.72;;
70576;SDS011;58138;43.138;24.702;2024-03-02T00:51:30;47.97;;;33.08;;
70576;SDS011;58138;43.138;24.702;2024-03-02T00:54:01;47.30;;;32.17;;
70576;SDS011;58138;43.138;24.702;2024-03-02T00:58:54;49.60;;;33.30;;
70576;SDS011;58138;43.138;24.702;2024-03-02T01:01:20;53.92;;;34.00;;
70576;SDS011;58138;43.138;24.702;2024-03-02T01:03:46;48.88;;;33.60;;
70576;SDS011;58138;43.138;24.702;2024-03-02T01:06:11;51.42;;;34.17;;
70576;SDS011;58138;43.138;24.702;2024-03-02T01:08:46;53.28;;;35.10;;
70576;SDS011;58138;43.138;24.702;2024-03-02T01:11:32;54.00;;;33.92;;
70576;SDS011;58138;43.138;24.702;2024-03-02T01:13:57;52.13;;;33.88;;
70576;SDS011;58138;43.138;24.702;2024-03-02T01:16:23;48.75;;;33.20;;
70576;SDS011;58138;43.138;24.702;2024-03-02T01:18:48;52.50;;;34.28;;
70576;SDS011;58138;43.138;24.702;2024-03-02T01:21:14;53.28;;;35.30;;
70576;SDS011;58138;43.138;24.702;2024-03-02T01:23:40;53.92;;;35.80;;
70576;SDS011;58138;43.138;24.702;2024-03-02T01:26:05;53.63;;;36.20;;
70576;SDS011;58138;43.138;24.702;2024-03-02T01:28:31;55.83;;;36.53;;
70576;SDS011;58138;43.138;24.702;2024-03-02T01:30:57;54.30;;;34.53;;
70576;SDS011;58138;43.138;24.702;2024-03-02T01:33:22;55.90;;;35.13;;
70576;SDS011;58138;43.138;24.702;2024-03-02T01:35:48;54.67;;;35.78;;
70576;SDS011;58138;43.138;24.702;2024-03-02T01:38:13;57.45;;;35.55;;
70576;SDS011;58138;43.138;24.702;2024-03-02T01:40:39;55.20;;;36.47;;
70576;SDS011;58138;43.138;24.702;2024-03-02T01:43:05;59.20;;;34.67;;
70576;SDS011;58138;43.138;24.702;2024-03-02T01:45:31;53.22;;;34.85;;
70576;SDS011;58138;43.138;24.702;2024-03-02T01:47:57;51.15;;;34.78;;
70576;SDS011;58138;43.138;24.702;2024-03-02T01:50:27;51.25;;;33.75;;
70576;SDS011;58138;43.138;24.702;2024-03-02T01:52:54;52.75;;;35.35;;
70576;SDS011;58138;43.138;24.702;2024-03-02T01:55:20;48.58;;;33.85;;
70576;SDS011;58138;43.138;24.702;2024-03-02T01:57:46;51.45;;;34.75;;
70576;SDS011;58138;43.138;24.702;2024-03-02T02:00:13;53.88;;;35.15;;
70576;SDS011;58138;43.138;24.702;2024-03-02T02:02:39;49.70;;;33.25;;
70576;SDS011;58138;43.138;24.702;2024-03-02T02:05:05;50.97;;;32.60;;
70576;SDS011;58138;43.138;24.702;2024-03-02T02:07:30;51.72;;;34.00;;
70576;SDS011;58138;43.138;24.702;2024-03-02T02:09:56;48.85;;;33.47;;
70576;SDS011;58138;43.138;24.702;2024-03-02T02:12:22;48.90;;;33.40;;
70576;SDS011;58138;43.138;24.702;2024-03-02T02:14:48;55.25;;;34.22;;
70576;SDS011;58138;43.138;24.702;2024-03-02T02:17:15;45.90;;;32.38;;
70576;SDS011;58138;43.138;24.702;2024-03-02T02:19:41;48.03;;;32.65;;
70576;SDS011;58138;43.138;24.702;2024-03-02T02:22:07;47.85;;;32.88;;
70576;SDS011;58138;43.138;24.702;2024-03-02T02:24:33;47.70;;;31.33;;
70576;SDS011;58138;43.138;24.702;2024-03-02T02:26:58;49.85;;;32.38;;
70576;SDS011;58138;43.138;24.702;2024-03-02T02:29:24;52.25;;;34.42;;
70576;SDS011;58138;43.138;24.702;2024-03-02T02:31:49;50.95;;;34.67;;
70576;SDS011;58138;43.138;24.702;2024-03-02T02:34:15;53.17;;;35.25;;
70576;SDS011;58138;43.138;24.702;2024-03-02T02:36:41;48.85;;;34.40;;
70576;SDS011;58138;43.138;24.702;2024-03-02T02:39:09;51.45;;;34.03;;
70576;SDS011;58138;43.138;24.702;2024-03-02T02:41:37;51.20;;;33.08;;
70576;SDS011;58138;43.138;24.702;2024-03-02T02:44:02;51.72;;;33.65;;
70576;SDS011;58138;43.138;24.702;2024-03-02T02:46:28;47.05;;;31.70;;
70576;SDS011;58138;43.138;24.702;2024-03-02T02:48:54;47.78;;;32.20;;
70576;SDS011;58138;43.138;24.702;2024-03-02T02:51:19;47.97;;;31.45;;
70576;SDS011;58138;43.138;24.702;2024-03-02T02:53:45;53.40;;;34.03;;
70576;SDS011;58138;43.138;24.702;2024-03-02T02:56:11;50.08;;;32.13;;
70576;SDS011;58138;43.138;24.702;2024-03-02T02:58:36;48.58;;;32.13;;
70576;SDS011;58138;43.138;24.702;2024-03-02T03:01:02;49.28;;;33.58;;
70576;SDS011;58138;43.138;24.702;2024-03-02T03:03:27;50.95;;;33.20;;
70576;SDS011;58138;43.138;24.702;2024-03-02T03:05:53;52.15;;;33.50;;
70576;SDS011;58138;43.138;24.702;2024-03-02T03:08:18;55.67;;;35.60;;
70576;SDS011;58138;43.138;24.702;2024-03-02T03:10:44;53.45;;;34.92;;
70576;SDS011;58138;43.138;24.702;2024-03-02T03:13:10;53.67;;;34.20;;
70576;SDS011;58138;43.138;24.702;2024-03-02T03:15:35;50.60;;;33.72;;
70576;SDS011;58138;43.138;24.702;2024-03-02T03:18:04;55.65;;;35.03;;
70576;SDS011;58138;43.138;24.702;2024-03-02T03:20:30;53.50;;;35.10;;
70576;SDS011;58138;43.138;24.702;2024-03-02T03:22:56;54.92;;;33.83;;
70576;SDS011;58138;43.138;24.702;2024-03-02T03:25:22;61.67;;;36.40;;
70576;SDS011;58138;43.138;24.702;2024-03-02T03:27:48;55.03;;;35.05;;
70576;SDS011;58138;43.138;24.702;2024-03-02T03:30:13;58.95;;;35.30;;
70576;SDS011;58138;43.138;24.702;2024-03-02T03:32:39;48.80;;;32.45;;
70576;SDS011;58138;43.138;24.702;2024-03-02T03:35:05;49.40;;;32.50;;
70576;SDS011;58138;43.138;24.702;2024-03-02T03:37:31;49.30;;;33.50;;
70576;SDS011;58138;43.138;24.702;2024-03-02T03:39:58;50.38;;;32.67;;
70576;SDS011;58138;43.138;24.702;2024-03-02T03:42:24;52.53;;;31.92;;
70576;SDS011;58138;43.138;24.702;2024-03-02T03:44:50;54.17;;;34.03;;
70576;SDS011;58138;43.138;24.702;2024-03-02T03:47:15;63.50;;;34.97;;
70576;SDS011;58138;43.138;24.702;2024-03-02T03:49:41;67.43;;;37.80;;
70576;SDS011;58138;43.138;24.702;2024-03-02T03:52:06;68.53;;;37.78;;
70576;SDS011;58138;43.138;24.702;2024-03-02T03:54:32;72.50;;;37.75;;
70576;SDS011;58138;43.138;24.702;2024-03-02T03:56:57;65.50;;;36.67;;
70576;SDS011;58138;43.138;24.702;2024-03-02T03:59:23;65.95;;;36.30;;
70576;SDS011;58138;43.138;24.702;2024-03-02T04:01:49;71.03;;;38.25;;
70576;SDS011;58138;43.138;24.702;2024-03-02T04:04:14;71.00;;;36.83;;
70576;SDS011;58138;43.138;24.702;2024-03-02T04:06:40;63.05;;;36.22;;
70576;SDS011;58138;43.138;24.702;2024-03-02T04:09:05;65.18;;;35.85;;
70576;SDS011;58138;43.138;24.702;2024-03-02T04:11:31;63.15;;;36.17;;
70576;SDS011;58138;43.138;24.702;2024-03-02T04:13:56;68.97;;;36.83;;
70576;SDS011;58138;43.138;24.702;2024-03-02T04:16:22;70.07;;;37.97;;
70576;SDS011;58138;43.138;24.702;2024-03-02T04:18:48;78.72;;;39.80;;
70576;SDS011;58138;43.138;24.702;2024-03-02T04:21:13;73.78;;;40.42;;
70576;SDS011;58138;43.138;24.702;2024-03-02T04:23:39;93.55;;;46.42;;
70576;SDS011;58138;43.138;24.702;2024-03-02T04:26:04;88.57;;;43.92;;
70576;SDS011;58138;43.138;24.702;2024-03-02T04:28:30;126.45;;;63.95;;
70576;SDS011;58138;43.138;24.702;2024-03-02T04:30:55;92.88;;;46.67;;
70576;SDS011;58138;43.138;24.702;2024-03-02T04:33:21;99.28;;;44.72;;
70576;SDS011;58138;43.138;24.702;2024-03-02T04:35:46;107.10;;;50.08;;
70576;SDS011;58138;43.138;24.702;2024-03-02T04:38:12;108.93;;;49.95;;
70576;SDS011;58138;43.138;24.702;2024-03-02T04:40:37;105.40;;;46.22;;
70576;SDS011;58138;43.138;24.702;2024-03-02T04:43:03;101.10;;;50.25;;
70576;SDS011;58138;43.138;24.702;2024-03-02T04:45:28;97.35;;;46.15;;
70576;SDS011;58138;43.138;24.702;2024-03-02T04:47:54;96.93;;;45.03;;
70576;SDS011;58138;43.138;24.702;2024-03-02T04:50:20;91.25;;;42.63;;
70576;SDS011;58138;43.138;24.702;2024-03-02T04:52:45;89.68;;;43.95;;
70576;SDS011;58138;43.138;24.702;2024-03-02T04:55:11;87.70;;;43.65;;
70576;SDS011;58138;43.138;24.702;2024-03-02T04:57:54;92.43;;;41.70;;
70576;SDS011;58138;43.138;24.702;2024-03-02T05:00:21;99.13;;;41.88;;
70576;SDS011;58138;43.138;24.702;2024-03-02T05:02:46;88.15;;;39.33;;
70576;SDS011;58138;43.138;24.702;2024-03-02T05:05:12;131.43;;;66.88;;
70576;SDS011;58138;43.138;24.702;2024-03-02T05:07:38;87.88;;;40.22;;
70576;SDS011;58138;43.138;24.702;2024-03-02T05:10:03;96.60;;;43.38;;
70576;SDS011;58138;43.138;24.702;2024-03-02T05:12:29;90.35;;;39.75;;
70576;SDS011;58138;43.138;24.702;2024-03-02T05:15:14;101.60;;;40.58;;
70576;SDS011;58138;43.138;24.702;2024-03-02T05:17:40;89.43;;;41.35;;
70576;SDS011;58138;43.138;24.702;2024-03-02T05:20:09;99.25;;;42.67;;
70576;SDS011;58138;43.138;24.702;2024-03-02T05:22:35;100.85;;;43.38;;
70576;SDS011;58138;43.138;24.702;2024-03-02T05:25:02;94.45;;;40.47;;
70576;SDS011;58138;43.138;24.702;2024-03-02T05:27:29;96.60;;;43.85;;
70576;SDS011;58138;43.138;24.702;2024-03-02T05:29:54;96.68;;;42.25;;
70576;SDS011;58138;43.138;24.702;2024-03-02T05:32:20;95.78;;;46.50;;
70576;SDS011;58138;43.138;24.702;2024-03-02T05:34:45;90.60;;;44.28;;
70576;SDS011;58138;43.138;24.702;2024-03-02T05:37:11;84.85;;;42.00;;
70576;SDS011;58138;43.138;24.702;2024-03-02T05:39:36;84.32;;;40.53;;
70576;SDS011;58138;43.138;24.702;2024-03-02T05:42:02;83.35;;;39.67;;
70576;SDS011;58138;43.138;24.702;2024-03-02T05:44:28;79.60;;;40.53;;
70576;SDS011;58138;43.138;24.702;2024-03-02T05:46:54;85.30;;;40.50;;
70576;SDS011;58138;43.138;24.702;2024-03-02T05:49:20;95.03;;;49.92;;
70576;SDS011;58138;43.138;24.702;2024-03-02T05:51:45;94.93;;;49.75;;
70576;SDS011;58138;43.138;24.702;2024-03-02T05:54:11;83.20;;;42.42;;
70576;SDS011;58138;43.138;24.702;2024-03-02T05:56:37;71.65;;;39.40;;
70576;SDS011;58138;43.138;24.702;2024-03-02T05:59:02;72.13;;;37.97;;
70576;SDS011;58138;43.138;24.702;2024-03-02T06:01:44;76.85;;;40.83;;
70576;SDS011;58138;43.138;24.702;2024-03-02T06:04:15;79.55;;;41.90;;
70576;SDS011;58138;43.138;24.702;2024-03-02T06:06:41;78.40;;;42.75;;
70576;SDS011;58138;43.138;24.702;2024-03-02T06:09:07;77.47;;;39.70;;
70576;SDS011;58138;43.138;24.702;2024-03-02T06:11:33;78.15;;;38.83;;
70576;SDS011;58138;43.138;24.702;2024-03-02T06:13:59;72.05;;;38.83;;
70576;SDS011;58138;43.138;24.702;2024-03-02T06:16:25;69.85;;;39.58;;
70576;SDS011;58138;43.138;24.702;2024-03-02T06:18:50;70.20;;;41.08;;
70576;SDS011;58138;43.138;24.702;2024-03-02T06:21:16;98.90;;;59.85;;
70576;SDS011;58138;43.138;24.702;2024-03-02T06:23:43;72.97;;;42.40;;
70576;SDS011;58138;43.138;24.702;2024-03-02T06:26:09;70.68;;;41.03;;
70576;SDS011;58138;43.138;24.702;2024-03-02T06:28:34;73.35;;;43.25;;
70576;SDS011;58138;43.138;24.702;2024-03-02T06:31:01;79.63;;;43.03;;
70576;SDS011;58138;43.138;24.702;2024-03-02T06:33:27;91.25;;;46.25;;
70576;SDS011;58138;43.138;24.702;2024-03-02T06:35:53;89.88;;;46.20;;
70576;SDS011;58138;43.138;24.702;2024-03-02T06:38:19;98.05;;;49.78;;
70576;SDS011;58138;43.138;24.702;2024-03-02T06:40:44;96.90;;;47.20;;
70576;SDS011;58138;43.138;24.702;2024-03-02T06:43:10;125.18;;;69.05;;
70576;SDS011;58138;43.138;24.702;2024-03-02T06:45:36;102.47;;;54.78;;
70576;SDS011;58138;43.138;24.702;2024-03-02T06:48:02;147.82;;;87.28;;
70576;SDS011;58138;43.138;24.702;2024-03-02T06:50:27;92.57;;;49.90;;
70576;SDS011;58138;43.138;24.702;2024-03-02T06:52:53;89.43;;;49.28;;
70576;SDS011;58138;43.138;24.702;2024-03-02T06:55:21;92.32;;;50.08;;
70576;SDS011;58138;43.138;24.702;2024-03-02T06:57:46;72.18;;;44.55;;
70576;SDS011;58138;43.138;24.702;2024-03-02T07:00:12;73.28;;;41.85;;
70576;SDS011;58138;43.138;24.702;2024-03-02T07:02:39;91.10;;;49.45;;
70576;SDS011;58138;43.138;24.702;2024-03-02T07:05:06;81.28;;;48.45;;
70576;SDS011;58138;43.138;24.702;2024-03-02T07:07:33;82.78;;;47.97;;
70576;SDS011;58138;43.138;24.702;2024-03-02T07:10:00;71.47;;;45.17;;
70576;SDS011;58138;43.138;24.702;2024-03-02T07:12:25;66.30;;;40.00;;
70576;SDS011;58138;43.138;24.702;2024-03-02T07:14:51;82.45;;;47.25;;
70576;SDS011;58138;43.138;24.702;2024-03-02T07:17:29;95.10;;;51.33;;
70576;SDS011;58138;43.138;24.702;2024-03-02T07:19:54;103.38;;;51.97;;
70576;SDS011;58138;43.138;24.702;2024-03-02T07:22:20;89.53;;;46.53;;
70576;SDS011;58138;43.138;24.702;2024-03-02T07:24:46;86.18;;;45.03;;
70576;SDS011;58138;43.138;24.702;2024-03-02T07:27:12;91.25;;;46.58;;
70576;SDS011;58138;43.138;24.702;2024-03-02T07:29:38;94.57;;;46.25;;
70576;SDS011;58138;43.138;24.702;2024-03-02T07:32:05;87.63;;;45.78;;
70576;SDS011;58138;43.138;24.702;2024-03-02T07:34:31;89.82;;;46.20;;
70576;SDS011;58138;43.138;24.702;2024-03-02T07:36:56;86.35;;;45.25;;
70576;SDS011;58138;43.138;24.702;2024-03-02T07:39:22;81.20;;;43.10;;
70576;SDS011;58138;43.138;24.702;2024-03-02T07:41:47;75.60;;;43.58;;
70576;SDS011;58138;43.138;24.702;2024-03-02T07:44:13;76.45;;;42.70;;
70576;SDS011;58138;43.138;24.702;2024-03-02T07:46:44;75.82;;;41.60;;
70576;SDS011;58138;43.138;24.702;2024-03-02T07:49:11;73.65;;;41.60;;
70576;SDS011;58138;43.138;24.702;2024-03-02T07:51:38;81.25;;;44.83;;
70576;SDS011;58138;43.138;24.702;2024-03-02T07:54:03;78.45;;;40.30;;
70576;SDS011;58138;43.138;24.702;2024-03-02T07:56:29;75.32;;;39.03;;
70576;SDS011;58138;43.138;24.702;2024-03-02T07:58:55;75.82;;;39.53;;
70576;SDS011;58138;43.138;24.702;2024-03-02T08:01:22;81.47;;;40.40;;
70576;SDS011;58138;43.138;24.702;2024-03-02T08:03:48;84.53;;;43.40;;
70576;SDS011;58138;43.138;24.702;2024-03-02T08:06:15;81.03;;;42.22;;
70576;SDS011;58138;43.138;24.702;2024-03-02T08:08:41;84.47;;;42.75;;
70576;SDS011;58138;43.138;24.702;2024-03-02T08:11:07;79.97;;;43.30;;
70576;SDS011;58138;43.138;24.702;2024-03-02T08:13:32;81.03;;;42.47;;
70576;SDS011;58138;43.138;24.702;2024-03-02T08:15:58;75.68;;;39.90;;
70576;SDS011;58138;43.138;24.702;2024-03-02T08:18:23;76.80;;;43.10;;
70576;SDS011;58138;43.138;24.702;2024-03-02T08:20:49;68.57;;;39.67;;
70576;SDS011;58138;43.138;24.702;2024-03-02T08:23:15;70.00;;;38.53;;
70576;SDS011;58138;43.138;24.702;2024-03-02T08:25:40;76.45;;;38.92;;
70576;SDS011;58138;43.138;24.702;2024-03-02T08:28:06;72.38;;;38.80;;
70576;SDS011;58138;43.138;24.702;2024-03-02T08:30:32;69.35;;;37.47;;
70576;SDS011;58138;43.138;24.702;2024-03-02T08:32:57;71.60;;;39.90;;
70576;SDS011;58138;43.138;24.702;2024-03-02T08:35:23;67.95;;;38.58;;
70576;SDS011;58138;43.138;24.702;2024-03-02T08:37:48;66.78;;;37.28;;
70576;SDS011;58138;43.138;24.702;2024-03-02T08:40:14;71.28;;;42.70;;
70576;SDS011;58138;43.138;24.702;2024-03-02T08:42:40;66.55;;;37.90;;
70576;SDS011;58138;43.138;24.702;2024-03-02T08:45:06;68.45;;;39.20;;
70576;SDS011;58138;43.138;24.702;2024-03-02T08:47:32;72.38;;;42.30;;
70576;SDS011;58138;43.138;24.702;2024-03-02T08:49:58;64.88;;;38.90;;
70576;SDS011;58138;43.138;24.702;2024-03-02T08:52:24;70.07;;;38.28;;
70576;SDS011;58138;43.138;24.702;2024-03-02T08:54:50;65.63;;;36.83;;
70576;SDS011;58138;43.138;24.702;2024-03-02T08:57:15;65.88;;;38.22;;
70576;SDS011;58138;43.138;24.702;2024-03-02T08:59:44;74.90;;;42.28;;
70576;SDS011;58138;43.138;24.702;2024-03-02T09:02:10;89.72;;;47.95;;
70576;SDS011;58138;43.138;24.702;2024-03-02T09:04:35;84.18;;;46.80;;
70576;SDS011;58138;43.138;24.702;2024-03-02T09:07:01;84.38;;;46.47;;
70576;SDS011;58138;43.138;24.702;2024-03-02T09:09:26;89.18;;;51.10;;
70576;SDS011;58138;43.138;24.702;2024-03-02T09:11:52;58.80;;;36.72;;
70576;SDS011;58138;43.138;24.702;2024-03-02T09:14:20;56.15;;;35.30;;
70576;SDS011;58138;43.138;24.702;2024-03-02T09:16:46;40.25;;;26.60;;
70576;SDS011;58138;43.138;24.702;2024-03-02T09:19:11;33.72;;;24.35;;
70576;SDS011;58138;43.138;24.702;2024-03-02T09:21:37;53.00;;;33.90;;
70576;SDS011;58138;43.138;24.702;2024-03-02T09:24:02;35.28;;;24.85;;
70576;SDS011;58138;43.138;24.702;2024-03-02T09:26:28;44.83;;;30.80;;
70576;SDS011;58138;43.138;24.702;2024-03-02T09:28:54;32.90;;;22.48;;
70576;SDS011;58138;43.138;24.702;2024-03-02T09:31:19;20.92;;;17.08;;
70576;SDS011;58138;43.138;24.702;2024-03-02T09:33:45;21.70;;;17.00;;
70576;SDS011;58138;43.138;24.702;2024-03-02T09:36:20;26.33;;;20.88;;
70576;SDS011;58138;43.138;24.702;2024-03-02T09:38:47;27.23;;;21.02;;
70576;SDS011;58138;43.138;24.702;2024-03-02T09:41:13;37.97;;;25.60;;
70576;SDS011;58138;43.138;24.702;2024-03-02T09:43:39;34.88;;;24.52;;
70576;SDS011;58138;43.138;24.702;2024-03-02T09:46:06;40.75;;;25.70;;
70576;SDS011;58138;43.138;24.702;2024-03-02T09:48:33;22.90;;;16.48;;
70576;SDS011;58138;43.138;24.702;2024-03-02T09:50:59;20.50;;;15.70;;
70576;SDS011;58138;43.138;24.702;2024-03-02T09:53:27;19.92;;;16.23;;
70576;SDS011;58138;43.138;24.702;2024-03-02T09:55:56;21.80;;;17.55;;
70576;SDS011;58138;43.138;24.702;2024-03-02T09:58:22;22.80;;;17.77;;
70576;SDS011;58138;43.138;24.702;2024-03-02T10:00:47;23.95;;;18.17;;
70576;SDS011;58138;43.138;24.702;2024-03-02T10:03:14;19.77;;;15.82;;
70576;SDS011;58138;43.138;24.702;2024-03-02T10:05:40;22.27;;;16.52;;
70576;SDS011;58138;43.138;24.702;2024-03-02T10:08:05;20.27;;;16.17;;
70576;SDS011;58138;43.138;24.702;2024-03-02T10:10:39;19.70;;;15.05;;
70576;SDS011;58138;43.138;24.702;2024-03-02T10:13:05;19.17;;;15.52;;
70576;SDS011;58138;43.138;24.702;2024-03-02T10:15:32;19.05;;;15.95;;
70576;SDS011;58138;43.138;24.702;2024-03-02T10:17:58;22.30;;;18.65;;
70576;SDS011;58138;43.138;24.702;2024-03-02T10:20:24;20.85;;;16.40;;
70576;SDS011;58138;43.138;24.702;2024-03-02T10:22:50;19.17;;;15.20;;
70576;SDS011;58138;43.138;24.702;2024-03-02T10:25:32;17.63;;;14.00;;
70576;SDS011;58138;43.138;24.702;2024-03-02T10:27:58;17.75;;;13.88;;
70576;SDS011;58138;43.138;24.702;2024-03-02T10:30:25;21.02;;;14.90;;
70576;SDS011;58138;43.138;24.702;2024-03-02T10:32:52;19.83;;;15.55;;
70576;SDS011;58138;43.138;24.702;2024-03-02T10:35:18;19.20;;;15.90;;
70576;SDS011;58138;43.138;24.702;2024-03-02T10:37:44;17.95;;;14.90;;
70576;SDS011;58138;43.138;24.702;2024-03-02T10:40:10;21.95;;;18.60;;
70576;SDS011;58138;43.138;24.702;2024-03-02T10:42:37;19.70;;;16.35;;
70576;SDS011;58138;43.138;24.702;2024-03-02T10:45:05;16.95;;;14.93;;
70576;SDS011;58138;43.138;24.702;2024-03-02T10:47:31;20.67;;;16.60;;
70576;SDS011;58138;43.138;24.702;2024-03-02T10:49:59;21.65;;;17.92;;
70576;SDS011;58138;43.138;24.702;2024-03-02T10:52:26;20.85;;;17.77;;
70576;SDS011;58138;43.138;24.702;2024-03-02T10:54:52;21.58;;;16.65;;
70576;SDS011;58138;43.138;24.702;2024-03-02T10:57:17;19.05;;;15.65;;
70576;SDS011;58138;43.138;24.702;2024-03-02T10:59:51;23.20;;;18.25;;
70576;SDS011;58138;43.138;24.702;2024-03-02T11:02:17;23.80;;;18.15;;
70576;SDS011;58138;43.138;24.702;2024-03-02T11:04:44;23.23;;;17.70;;
70576;SDS011;58138;43.138;24.702;2024-03-02T11:07:11;24.63;;;18.55;;
70576;SDS011;58138;43.138;24.702;2024-03-02T11:09:41;21.63;;;17.40;;
70576;SDS011;58138;43.138;24.702;2024-03-02T11:12:22;22.85;;;17.48;;
70576;SDS011;58138;43.138;24.702;2024-03-02T11:14:48;22.17;;;17.27;;
70576;SDS011;58138;43.138;24.702;2024-03-02T11:17:17;24.58;;;18.08;;
70576;SDS011;58138;43.138;24.702;2024-03-02T11:19:43;24.25;;;18.77;;
70576;SDS011;58138;43.138;24.702;2024-03-02T11:22:10;26.98;;;19.60;;
70576;SDS011;58138;43.138;24.702;2024-03-02T11:24:36;23.58;;;18.45;;
70576;SDS011;58138;43.138;24.702;2024-03-02T11:27:02;21.70;;;17.90;;
70576;SDS011;58138;43.138;24.702;2024-03-02T11:34:43;20.13;;;16.90;;
70576;SDS011;58138;43.138;24.702;2024-03-02T11:37:11;20.33;;;16.92;;
70576;SDS011;58138;43.138;24.702;2024-03-02T11:39:38;21.17;;;16.65;;
70576;SDS011;58138;43.138;24.702;2024-03-02T11:42:05;19.52;;;16.40;;
70576;SDS011;58138;43.138;24.702;2024-03-02T11:44:35;24.02;;;16.98;;
70576;SDS011;58138;43.138;24.702;2024-03-02T11:47:03;18.63;;;15.00;;
70576;SDS011;58138;43.138;24.702;2024-03-02T11:49:37;20.95;;;15.48;;
70576;SDS011;58138;43.138;24.702;2024-03-02T11:52:06;54.42;;;26.52;;
70576;SDS011;58138;43.138;24.702;2024-03-02T11:54:33;27.65;;;18.50;;
70576;SDS011;58138;43.138;24.702;2024-03-02T11:57:05;25.70;;;18.45;;
70576;SDS011;58138;43.138;24.702;2024-03-02T11:59:31;21.65;;;16.25;;
70576;SDS011;58138;43.138;24.702;2024-03-02T12:01:57;20.83;;;16.40;;
70576;SDS011;58138;43.138;24.702;2024-03-02T12:04:23;20.02;;;15.82;;
70576;SDS011;58138;43.138;24.702;2024-03-02T12:06:58;21.75;;;16.52;;
70576;SDS011;58138;43.138;24.702;2024-03-02T12:09:25;17.95;;;12.75;;
70576;SDS011;58138;43.138;24.702;2024-03-02T12:14:33;17.38;;;12.45;;
70576;SDS011;58138;43.138;24.702;2024-03-02T12:16:59;18.52;;;13.27;;
70576;SDS011;58138;43.138;24.702;2024-03-02T12:19:29;20.00;;;15.05;;
70576;SDS011;58138;43.138;24.702;2024-03-02T12:21:56;25.30;;;17.23;;
70576;SDS011;58138;43.138;24.702;2024-03-02T12:24:22;21.85;;;16.25;;
70576;SDS011;58138;43.138;24.702;2024-03-02T12:26:51;29.08;;;18.45;;
70576;SDS011;58138;43.138;24.702;2024-03-02T12:29:18;39.45;;;26.05;;
70576;SDS011;58138;43.138;24.702;2024-03-02T12:31:44;43.10;;;26.92;;
70576;SDS011;58138;43.138;24.702;2024-03-02T12:34:13;44.72;;;27.65;;
70576;SDS011;58138;43.138;24.702;2024-03-02T12:36:39;45.72;;;29.40;;
70576;SDS011;58138;43.138;24.702;2024-03-02T12:39:08;42.88;;;29.55;;
70576;SDS011;58138;43.138;24.702;2024-03-02T12:41:38;47.35;;;29.67;;
70576;SDS011;58138;43.138;24.702;2024-03-02T12:44:04;42.63;;;29.20;;
70576;SDS011;58138;43.138;24.702;2024-03-02T12:46:30;50.63;;;32.45;;
70576;SDS011;58138;43.138;24.702;2024-03-02T12:48:57;58.05;;;33.67;;
70576;SDS011;58138;43.138;24.702;2024-03-02T12:51:24;49.42;;;31.60;;
70576;SDS011;58138;43.138;24.702;2024-03-02T12:53:59;52.40;;;32.47;;
70576;SDS011;58138;43.138;24.702;2024-03-02T12:56:25;52.83;;;35.92;;
70576;SDS011;58138;43.138;24.702;2024-03-02T12:58:54;56.45;;;33.90;;
70576;SDS011;58138;43.138;24.702;2024-03-02T13:01:19;48.83;;;31.98;;
70576;SDS011;58138;43.138;24.702;2024-03-02T13:03:45;45.47;;;29.35;;
70576;SDS011;58138;43.138;24.702;2024-03-02T13:06:14;42.00;;;27.90;;
70576;SDS011;58138;43.138;24.702;2024-03-02T13:08:40;66.80;;;43.35;;
70576;SDS011;58138;43.138;24.702;2024-03-02T13:11:06;43.90;;;28.27;;
70576;SDS011;58138;43.138;24.702;2024-03-02T13:13:32;42.72;;;29.50;;
70576;SDS011;58138;43.138;24.702;2024-03-02T13:15:58;43.80;;;28.83;;
70576;SDS011;58138;43.138;24.702;2024-03-02T13:18:23;46.45;;;29.80;;
70576;SDS011;58138;43.138;24.702;2024-03-02T13:20:49;40.67;;;28.65;;
70576;SDS011;58138;43.138;24.702;2024-03-02T13:23:14;46.35;;;27.60;;
70576;SDS011;58138;43.138;24.702;2024-03-02T13:25:40;40.63;;;27.60;;
70576;SDS011;58138;43.138;24.702;2024-03-02T13:28:06;41.60;;;27.50;;
70576;SDS011;58138;43.138;24.702;2024-03-02T13:30:32;44.92;;;29.33;;
70576;SDS011;58138;43.138;24.702;2024-03-02T13:32:58;44.38;;;27.98;;
70576;SDS011;58138;43.138;24.702;2024-03-02T13:35:23;42.15;;;26.52;;
70576;SDS011;58138;43.138;24.702;2024-03-02T13:37:49;36.75;;;24.58;;
70576;SDS011;58138;43.138;24.702;2024-03-02T13:40:15;40.25;;;26.05;;
70576;SDS011;58138;43.138;24.702;2024-03-02T13:42:45;40.58;;;26.85;;
70576;SDS011;58138;43.138;24.702;2024-03-02T13:45:11;41.97;;;28.00;;
70576;SDS011;58138;43.138;24.702;2024-03-02T13:47:38;53.95;;;36.20;;
70576;SDS011;58138;43.138;24.702;2024-03-02T13:50:03;45.05;;;33.40;;
70576;SDS011;58138;43.138;24.702;2024-03-02T13:52:30;47.25;;;30.98;;
70576;SDS011;58138;43.138;24.702;2024-03-02T13:54:56;45.78;;;30.30;;
70576;SDS011;58138;43.138;24.702;2024-03-02T13:57:21;41.75;;;27.90;;
70576;SDS011;58138;43.138;24.702;2024-03-02T13:59:47;41.83;;;27.45;;
70576;SDS011;58138;43.138;24.702;2024-03-02T14:02:12;40.33;;;26.80;;
70576;SDS011;58138;43.138;24.702;2024-03-02T14:04:38;36.80;;;25.85;;
70576;SDS011;58138;43.138;24.702;2024-03-02T14:07:04;40.13;;;26.45;;
70576;SDS011;58138;43.138;24.702;2024-03-02T14:09:33;43.55;;;28.70;;
70576;SDS011;58138;43.138;24.702;2024-03-02T14:11:59;78.88;;;56.25;;
70576;SDS011;58138;43.138;24.702;2024-03-02T14:14:27;89.68;;;68.15;;
70576;SDS011;58138;43.138;24.702;2024-03-02T14:16:54;80.53;;;58.55;;